Time;durP1;ratioP1;P1;durP2;ratioP2;P2;SDS_P1;SDS_P2;PMS_P1;PMS_P2;Temp;Humidity;BMP_temperature;BMP_pressure;BME280_temperature;BME280_humidity;BME280_pressure;Samples;Min_cycle;Max_cycle;Signal;HPM_P1;HPM_P2
2021/07/09 00:02:52;;;;;;;32.13;20.85;;;;;;;;;;5051298;28;20087;-47
2021/07/09 00:05:18;;;;;;;34.47;20.98;;;;;;;;;;5043242;28;20122;-47
2021/07/09 00:07:44;;;;;;;33.00;22.30;;;;;;;;;;5049082;28;20603;-46
2021/07/09 00:10:11;;;;;;;38.97;22.55;;;;;;;;;;5050343;28;20526;-46
2021/07/09 00:12:37;;;;;;;32.60;21.85;;;;;;;;;;5047184;28;20102;-45
2021/07/09 00:15:04;;;;;;;29.23;20.45;;;;;;;;;;5050164;28;20084;-46
2021/07/09 00:17:30;;;;;;;31.13;20.52;;;;;;;;;;5049868;28;20146;-45
2021/07/09 00:19:57;;;;;;;30.77;20.52;;;;;;;;;;5050492;28;20056;-46
2021/07/09 00:22:23;;;;;;;31.08;19.83;;;;;;;;;;5047630;28;20144;-46
2021/07/09 00:24:50;;;;;;;36.65;20.85;;;;;;;;;;5040006;28;20217;-45
2021/07/09 00:27:16;;;;;;;35.58;21.80;;;;;;;;;;5050213;28;20102;-45
2021/07/09 00:29:42;;;;;;;32.28;21.23;;;;;;;;;;5039072;28;20111;-48
2021/07/09 00:32:09;;;;;;;30.73;20.05;;;;;;;;;;5049511;28;20167;-46
2021/07/09 00:34:35;;;;;;;34.72;19.75;;;;;;;;;;5046857;28;20053;-46
2021/07/09 00:37:02;;;;;;;28.52;18.27;;;;;;;;;;5052193;28;20148;-46
2021/07/09 00:39:28;;;;;;;38.97;19.27;;;;;;;;;;5043118;28;20056;-45
2021/07/09 00:41:55;;;;;;;36.47;21.02;;;;;;;;;;5049029;28;20053;-46
2021/07/09 00:44:21;;;;;;;33.13;19.75;;;;;;;;;;5040989;28;20071;-45
2021/07/09 00:46:50;;;;;;;36.22;20.13;;;;;;;;;;5055553;28;20139;-45
2021/07/09 00:49:16;;;;;;;35.30;18.88;;;;;;;;;;5060849;28;20143;-46
2021/07/09 00:51:43;;;;;;;32.90;19.83;;;;;;;;;;5053347;28;20059;-45
2021/07/09 00:54:10;;;;;;;36.17;20.08;;;;;;;;;;5051373;28;20053;-45
2021/07/09 00:56:36;;;;;;;38.20;20.52;;;;;;;;;;5044964;28;20049;-46
2021/07/09 00:59:04;;;;;;;36.53;20.58;;;;;;;;;;5055093;28;20172;-45
2021/07/09 01:01:30;;;;;;;37.17;21.27;;;;;;;;;;5042485;28;20057;-46
2021/07/09 01:03:57;;;;;;;37.78;20.30;;;;;;;;;;5045822;28;20099;-45
2021/07/09 01:06:23;;;;;;;32.67;19.65;;;;;;;;;;5044086;28;20053;-45
2021/07/09 01:08:50;;;;;;;35.15;22.02;;;;;;;;;;5033716;28;21806;-45
2021/07/09 01:11:18;;;;;;;33.75;20.85;;;;;;;;;;5051667;28;20133;-45
2021/07/09 01:13:45;;;;;;;36.40;20.30;;;;;;;;;;5049753;28;20168;-46
2021/07/09 01:16:12;;;;;;;36.15;20.92;;;;;;;;;;5062980;28;20571;-45
2021/07/09 01:18:39;;;;;;;41.20;21.13;;;;;;;;;;5040134;28;20110;-46
2021/07/09 01:21:07;;;;;;;41.35;21.13;;;;;;;;;;5055916;28;20077;-45
2021/07/09 01:23:34;;;;;;;39.13;21.05;;;;;;;;;;5054059;28;20045;-45
2021/07/09 01:26:00;;;;;;;43.30;22.00;;;;;;;;;;5049558;28;20479;-46
2021/07/09 01:28:26;;;;;;;39.33;22.02;;;;;;;;;;5061331;28;20401;-46
2021/07/09 01:30:53;;;;;;;44.58;22.50;;;;;;;;;;5046923;28;20574;-46
2021/07/09 01:33:19;;;;;;;41.03;21.20;;;;;;;;;;5044661;28;20045;-46
2021/07/09 01:35:46;;;;;;;43.78;20.45;;;;;;;;;;5052365;28;20120;-46
2021/07/09 01:38:12;;;;;;;47.20;21.90;;;;;;;;;;5067560;28;20106;-46
2021/07/09 01:40:39;;;;;;;41.20;21.05;;;;;;;;;;5059083;28;20059;-46
2021/07/09 01:43:06;;;;;;;38.95;19.10;;;;;;;;;;5060292;28;20049;-47
2021/07/09 01:45:32;;;;;;;31.13;18.80;;;;;;;;;;5052926;28;20147;-47
2021/07/09 01:47:59;;;;;;;43.78;22.45;;;;;;;;;;5044315;28;20519;-47
2021/07/09 01:50:26;;;;;;;38.92;21.40;;;;;;;;;;5063527;28;20594;-46
2021/07/09 01:52:52;;;;;;;37.85;19.85;;;;;;;;;;5045037;28;20143;-47
2021/07/09 01:55:19;;;;;;;37.22;19.38;;;;;;;;;;5050026;28;20052;-49
2021/07/09 01:57:45;;;;;;;38.10;19.38;;;;;;;;;;5055890;28;20519;-46
2021/07/09 02:00:16;;;;;;;41.60;20.25;;;;;;;;;;5055953;28;20128;-45
2021/07/09 02:02:43;;;;;;;44.58;20.00;;;;;;;;;;5062154;28;20576;-48
2021/07/09 02:05:13;;;;;;;39.58;20.00;;;;;;;;;;5053622;28;20137;-47
2021/07/09 02:07:41;;;;;;;39.85;19.17;;;;;;;;;;5058851;28;20048;-44
2021/07/09 02:10:08;;;;;;;38.88;20.60;;;;;;;;;;5054852;28;20154;-47
2021/07/09 02:12:35;;;;;;;40.13;21.20;;;;;;;;;;5059923;28;20139;-47
2021/07/09 02:15:04;;;;;;;40.65;21.77;;;;;;;;;;5037880;28;20199;-46
2021/07/09 02:17:31;;;;;;;41.15;20.70;;;;;;;;;;5057056;28;20048;-47
2021/07/09 02:19:57;;;;;;;40.22;20.70;;;;;;;;;;5047760;28;20088;-46
2021/07/09 02:22:23;;;;;;;38.90;20.40;;;;;;;;;;5056035;28;20132;-46
2021/07/09 02:24:50;;;;;;;45.80;21.02;;;;;;;;;;5047051;28;20086;-48
2021/07/09 02:27:17;;;;;;;41.10;21.70;;;;;;;;;;5035355;28;20124;-46
2021/07/09 02:29:43;;;;;;;43.67;22.33;;;;;;;;;;5047077;28;20516;-47
2021/07/09 02:32:11;;;;;;;38.42;20.15;;;;;;;;;;5040207;28;20056;-48
2021/07/09 02:34:38;;;;;;;42.47;21.23;;;;;;;;;;5051124;28;20044;-46
2021/07/09 02:37:05;;;;;;;47.47;20.95;;;;;;;;;;5042376;28;20088;-46
2021/07/09 02:39:31;;;;;;;41.50;21.50;;;;;;;;;;5056891;28;20147;-46
2021/07/09 02:41:58;;;;;;;38.88;20.85;;;;;;;;;;5061951;28;20048;-46
2021/07/09 02:44:25;;;;;;;44.55;20.85;;;;;;;;;;5054307;28;20480;-45
2021/07/09 02:46:52;;;;;;;38.00;19.83;;;;;;;;;;5040742;28;20667;-46
2021/07/09 02:49:19;;;;;;;39.03;20.40;;;;;;;;;;5051881;28;20139;-46
2021/07/09 02:51:46;;;;;;;35.63;19.05;;;;;;;;;;5051723;28;20055;-46
2021/07/09 02:54:13;;;;;;;37.75;20.17;;;;;;;;;;5037951;28;20087;-46
2021/07/09 02:56:39;;;;;;;42.67;20.40;;;;;;;;;;5062054;28;20143;-46
2021/07/09 02:59:06;;;;;;;44.40;21.25;;;;;;;;;;5059864;28;20096;-47
2021/07/09 03:01:33;;;;;;;42.17;21.35;;;;;;;;;;5057588;28;20045;-46
2021/07/09 03:04:00;;;;;;;44.63;20.10;;;;;;;;;;5049475;28;20514;-46
2021/07/09 03:06:26;;;;;;;41.75;21.13;;;;;;;;;;5027565;28;20075;-46
2021/07/09 03:08:54;;;;;;;39.95;20.88;;;;;;;;;;5054756;28;20152;-46
2021/07/09 03:11:21;;;;;;;39.95;20.55;;;;;;;;;;5040708;28;20140;-46
2021/07/09 03:13:49;;;;;;;;;;;;;;;;;;5060477;28;20620;-46
2021/07/09 03:16:15;;;;;;;39.92;20.10;;;;;;;;;;5053696;28;19924;-47
2021/07/09 03:18:42;;;;;;;44.20;21.38;;;;;;;;;;5063146;28;20057;-47
2021/07/09 03:21:08;;;;;;;39.03;20.17;;;;;;;;;;5055389;28;20131;-46
2021/07/09 03:23:34;;;;;;;40.53;20.30;;;;;;;;;;5052251;28;20518;-46
2021/07/09 03:26:01;;;;;;;37.83;19.40;;;;;;;;;;5054863;28;20139;-46
2021/07/09 03:28:27;;;;;;;41.38;19.67;;;;;;;;;;5060792;28;20087;-46
2021/07/09 03:30:54;;;;;;;35.13;18.55;;;;;;;;;;5059219;28;20048;-46
2021/07/09 03:33:20;;;;;;;39.20;18.40;;;;;;;;;;5045139;28;20080;-46
2021/07/09 03:35:46;;;;;;;31.08;17.33;;;;;;;;;;5053743;28;20131;-46
2021/07/09 03:38:13;;;;;;;36.58;19.42;;;;;;;;;;5053467;28;20390;-49
2021/07/09 03:40:39;;;;;;;40.17;20.13;;;;;;;;;;5056416;28;20131;-47
2021/07/09 03:43:05;;;;;;;39.72;19.85;;;;;;;;;;5058812;28;20494;-46
2021/07/09 03:45:32;;;;;;;48.70;19.85;;;;;;;;;;5041359;28;20500;-47
2021/07/09 03:47:58;;;;;;;35.88;18.15;;;;;;;;;;5062295;28;20928;-47
2021/07/09 03:50:25;;;;;;;31.58;16.92;;;;;;;;;;5049080;28;20131;-46
2021/07/09 03:52:51;;;;;;;40.10;19.10;;;;;;;;;;5051002;28;20524;-46
2021/07/09 03:55:18;;;;;;;35.15;18.30;;;;;;;;;;5058678;28;20147;-47
2021/07/09 03:57:44;;;;;;;33.17;16.83;;;;;;;;;;5057609;28;20090;-47
2021/07/09 04:00:11;;;;;;;38.90;18.77;;;;;;;;;;5062295;28;20147;-48
2021/07/09 04:02:37;;;;;;;41.45;19.95;;;;;;;;;;5042611;28;20139;-48
2021/07/09 04:05:04;;;;;;;35.00;18.35;;;;;;;;;;5048170;28;20556;-46
2021/07/09 04:07:31;;;;;;;38.33;19.65;;;;;;;;;;5042860;28;20049;-46
2021/07/09 04:09:57;;;;;;;40.72;19.00;;;;;;;;;;5054165;28;20853;-47
2021/07/09 04:12:23;;;;;;;39.03;19.02;;;;;;;;;;5042540;28;20142;-46
2021/07/09 04:14:50;;;;;;;38.97;20.30;;;;;;;;;;5052180;28;20159;-47
2021/07/09 04:17:16;;;;;;;42.05;19.40;;;;;;;;;;5059774;28;20143;-46
2021/07/09 04:19:43;;;;;;;36.15;19.10;;;;;;;;;;5053196;28;20076;-47
2021/07/09 04:22:09;;;;;;;40.25;18.33;;;;;;;;;;5060944;28;20139;-46
2021/07/09 04:24:35;;;;;;;39.63;19.95;;;;;;;;;;5041757;28;20431;-47
2021/07/09 04:27:02;;;;;;;36.70;18.33;;;;;;;;;;5048365;28;20102;-46
2021/07/09 04:29:28;;;;;;;36.25;18.30;;;;;;;;;;5054308;28;20086;-46
2021/07/09 04:31:56;;;;;;;38.08;18.42;;;;;;;;;;5045488;28;20057;-47
2021/07/09 04:34:22;;;;;;;42.78;18.52;;;;;;;;;;5041006;28;20166;-47
2021/07/09 04:36:49;;;;;;;44.33;18.90;;;;;;;;;;5043311;28;20076;-46
2021/07/09 04:39:15;;;;;;;40.25;19.30;;;;;;;;;;5045103;28;20147;-46
2021/07/09 04:41:41;;;;;;;38.58;18.38;;;;;;;;;;5044167;28;20076;-46
2021/07/09 04:44:08;;;;;;;40.65;19.08;;;;;;;;;;5052531;28;20483;-48
2021/07/09 04:46:35;;;;;;;40.15;18.98;;;;;;;;;;5053929;28;20075;-46
2021/07/09 04:49:01;;;;;;;36.95;19.95;;;;;;;;;;5063164;28;20059;-47
2021/07/09 04:51:28;;;;;;;37.78;18.60;;;;;;;;;;5047789;28;20090;-46
2021/07/09 04:53:54;;;;;;;38.60;19.67;;;;;;;;;;5048947;28;20139;-47
2021/07/09 04:56:20;;;;;;;48.97;19.20;;;;;;;;;;5058848;28;20144;-46
2021/07/09 04:58:47;;;;;;;41.80;20.10;;;;;;;;;;5060732;28;20496;-46
2021/07/09 05:01:13;;;;;;;45.80;20.88;;;;;;;;;;5067660;28;20045;-47
2021/07/09 05:03:40;;;;;;;46.92;20.50;;;;;;;;;;5060706;28;20048;-46
2021/07/09 05:06:06;;;;;;;41.88;21.23;;;;;;;;;;5049157;28;20139;-46
2021/07/09 05:08:32;;;;;;;42.85;20.40;;;;;;;;;;5058906;28;20135;-46
2021/07/09 05:10:59;;;;;;;42.78;20.48;;;;;;;;;;5059381;28;20074;-46
2021/07/09 05:13:25;;;;;;;42.30;20.08;;;;;;;;;;5061597;28;20075;-47
2021/07/09 05:15:51;;;;;;;43.90;21.85;;;;;;;;;;5063753;28;20090;-46
2021/07/09 05:18:18;;;;;;;46.05;20.98;;;;;;;;;;5064522;28;20045;-46
2021/07/09 05:20:44;;;;;;;44.03;20.98;;;;;;;;;;5047759;28;20156;-47
2021/07/09 05:23:15;;;;;;;48.05;21.80;;;;;;;;;;5054035;28;20060;-46
2021/07/09 05:25:41;;;;;;;46.75;20.90;;;;;;;;;;5056770;28;20172;-47
2021/07/09 05:28:09;;;;;;;47.65;21.95;;;;;;;;;;5063196;28;20094;-46
2021/07/09 05:30:35;;;;;;;46.70;22.23;;;;;;;;;;5061217;28;20535;-47
2021/07/09 05:33:01;;;;;;;44.08;20.05;;;;;;;;;;5056264;28;20871;-46
2021/07/09 05:35:28;;;;;;;47.72;22.02;;;;;;;;;;5040030;28;20045;-46
2021/07/09 05:37:54;;;;;;;40.30;19.73;;;;;;;;;;5060460;28;20139;-48
2021/07/09 05:40:20;;;;;;;46.17;21.52;;;;;;;;;;5058188;28;20048;-47
2021/07/09 05:42:51;;;;;;;47.70;21.38;;;;;;;;;;5055567;28;20139;-46
2021/07/09 05:45:17;;;;;;;45.60;21.65;;;;;;;;;;5062769;28;20076;-47
2021/07/09 05:47:44;;;;;;;39.83;20.92;;;;;;;;;;5053720;28;20048;-46
2021/07/09 05:50:10;;;;;;;44.17;20.23;;;;;;;;;;5064529;28;20080;-46
2021/07/09 05:52:37;;;;;;;41.65;18.92;;;;;;;;;;5059964;28;20132;-47
2021/07/09 05:55:04;;;;;;;39.35;19.38;;;;;;;;;;5059789;28;20136;-46
2021/07/09 05:57:30;;;;;;;41.20;20.65;;;;;;;;;;5063185;28;20187;-46
2021/07/09 05:59:56;;;;;;;41.13;18.92;;;;;;;;;;5052244;28;20508;-46
2021/07/09 06:02:23;;;;;;;42.33;19.27;;;;;;;;;;5059407;28;20051;-47
2021/07/09 06:04:49;;;;;;;37.78;18.35;;;;;;;;;;5042544;28;20091;-46
2021/07/09 06:07:15;;;;;;;41.60;20.13;;;;;;;;;;5044155;28;20157;-46
2021/07/09 06:09:42;;;;;;;41.03;19.85;;;;;;;;;;5047735;28;20088;-46
2021/07/09 06:12:08;;;;;;;35.65;17.02;;;;;;;;;;5062279;28;20195;-46
2021/07/09 06:14:35;;;;;;;36.60;18.05;;;;;;;;;;5059452;28;20054;-47
2021/07/09 06:17:01;;;;;;;34.03;16.73;;;;;;;;;;5034171;28;20106;-46
2021/07/09 06:19:28;;;;;;;26.67;14.45;;;;;;;;;;5060377;28;20407;-47
2021/07/09 06:21:59;;;;;;;32.58;15.93;;;;;;;;;;5049213;28;20076;-46
2021/07/09 06:24:25;;;;;;;23.40;11.60;;;;;;;;;;5053874;28;20072;-46
2021/07/09 06:26:52;;;;;;;28.75;13.05;;;;;;;;;;5049607;28;20072;-47
2021/07/09 06:29:18;;;;;;;28.58;14.23;;;;;;;;;;5067641;28;20051;-48
2021/07/09 06:31:45;;;;;;;25.58;12.55;;;;;;;;;;5063370;28;20087;-47
2021/07/09 06:34:12;;;;;;;27.88;12.88;;;;;;;;;;5056930;28;20505;-47
2021/07/09 06:36:38;;;;;;;22.00;11.15;;;;;;;;;;5055962;28;20227;-48
2021/07/09 06:39:04;;;;;;;20.65;9.70;;;;;;;;;;5048167;28;20175;-48
2021/07/09 06:41:31;;;;;;;18.90;9.73;;;;;;;;;;5051128;28;20080;-47
2021/07/09 06:43:59;;;;;;;17.20;9.60;;;;;;;;;;5044594;28;20597;-47
2021/07/09 06:46:26;;;;;;;;;;;;;;;;;;5056190;28;20131;-47
2021/07/09 06:48:53;;;;;;;16.85;8.43;;;;;;;;;;5058678;28;20272;-48
2021/07/09 06:51:19;;;;;;;14.32;8.35;;;;;;;;;;5043770;28;20149;-48
2021/07/09 06:53:47;;;;;;;14.15;8.48;;;;;;;;;;5061945;28;20539;-46
2021/07/09 06:56:14;;;;;;;13.07;7.43;;;;;;;;;;5059158;28;20557;-48
2021/07/09 06:58:41;;;;;;;13.27;8.40;;;;;;;;;;5060926;28;20127;-47
2021/07/09 07:01:07;;;;;;;14.88;7.68;;;;;;;;;;5051307;28;20529;-48
2021/07/09 07:03:34;;;;;;;15.95;7.43;;;;;;;;;;5055298;28;21047;-47
2021/07/09 07:06:01;;;;;;;13.48;7.28;;;;;;;;;;5029085;28;20186;-47
2021/07/09 07:08:27;;;;;;;13.82;7.40;;;;;;;;;;5053838;28;20528;-47
2021/07/09 07:10:54;;;;;;;10.50;6.82;;;;;;;;;;5050377;28;20091;-48
2021/07/09 07:13:22;;;;;;;12.70;6.70;;;;;;;;;;5049121;28;20064;-47
2021/07/09 07:15:48;;;;;;;10.05;6.63;;;;;;;;;;5059983;28;20087;-47
2021/07/09 07:18:15;;;;;;;12.63;7.82;;;;;;;;;;5056555;28;20098;-46
2021/07/09 07:20:42;;;;;;;10.93;7.13;;;;;;;;;;5056314;28;20140;-47
2021/07/09 07:23:09;;;;;;;13.60;8.27;;;;;;;;;;5056109;28;20143;-46
2021/07/09 07:25:36;;;;;;;14.02;8.18;;;;;;;;;;5061478;28;20084;-45
2021/07/09 07:28:03;;;;;;;17.98;10.27;;;;;;;;;;5056568;28;20124;-47
2021/07/09 07:30:29;;;;;;;19.35;9.57;;;;;;;;;;5043064;28;20143;-47
2021/07/09 07:32:56;;;;;;;12.63;7.72;;;;;;;;;;5051457;28;20095;-47
2021/07/09 07:35:22;;;;;;;15.60;7.80;;;;;;;;;;5057302;28;20154;-47
2021/07/09 07:37:49;;;;;;;17.80;8.55;;;;;;;;;;5064058;28;20135;-47
2021/07/09 07:40:16;;;;;;;15.10;7.95;;;;;;;;;;5057849;28;20052;-46
2021/07/09 07:42:42;;;;;;;18.20;8.98;;;;;;;;;;5057417;28;20114;-47
2021/07/09 07:45:09;;;;;;;14.02;8.45;;;;;;;;;;5047865;28;21414;-47
2021/07/09 07:47:35;;;;;;;17.77;9.02;;;;;;;;;;5052382;28;20471;-47
2021/07/09 07:50:02;;;;;;;16.70;8.35;;;;;;;;;;5051841;28;20063;-47
2021/07/09 07:52:29;;;;;;;18.38;9.75;;;;;;;;;;5048933;28;20062;-46
2021/07/09 07:54:55;;;;;;;18.08;10.18;;;;;;;;;;5063898;28;20140;-47
2021/07/09 07:57:22;;;;;;;16.10;8.40;;;;;;;;;;5050317;28;20044;-47
2021/07/09 07:59:48;;;;;;;18.13;9.95;;;;;;;;;;5056683;28;20132;-47
2021/07/09 08:02:14;;;;;;;19.02;10.73;;;;;;;;;;5051270;28;20642;-47
2021/07/09 08:04:41;;;;;;;22.52;12.30;;;;;;;;;;5050132;28;20127;-47
2021/07/09 08:07:10;;;;;;;18.42;10.48;;;;;;;;;;5060119;28;20084;-47
2021/07/09 08:09:36;;;;;;;21.50;11.77;;;;;;;;;;5055079;28;20044;-48
2021/07/09 08:12:03;;;;;;;17.70;10.63;;;;;;;;;;5044836;28;20143;-47
2021/07/09 08:14:29;;;;;;;19.75;10.25;;;;;;;;;;5043555;28;20811;-48
2021/07/09 08:16:55;;;;;;;20.63;9.85;;;;;;;;;;5058943;28;20054;-47
2021/07/09 08:19:22;;;;;;;15.50;8.85;;;;;;;;;;5055871;28;20052;-45
2021/07/09 08:21:49;;;;;;;17.85;8.20;;;;;;;;;;5063840;28;20052;-47
2021/07/09 08:24:17;;;;;;;17.92;9.40;;;;;;;;;;5059300;28;20131;-46
2021/07/09 08:26:43;;;;;;;12.37;6.90;;;;;;;;;;5050290;28;20088;-47
2021/07/09 08:29:10;;;;;;;10.88;6.40;;;;;;;;;;5046409;28;20372;-47
2021/07/09 08:31:53;;;;;;;12.35;7.03;;;;;;;;;;5045050;28;20045;-49
2021/07/09 08:34:19;;;;;;;11.57;6.70;;;;;;;;;;5056892;28;20726;-46
2021/07/09 08:36:46;;;;;;;12.98;7.18;;;;;;;;;;5055369;28;20053;-47
2021/07/09 08:39:15;;;;;;;13.90;8.80;;;;;;;;;;5053748;28;20135;-46
2021/07/09 08:41:44;;;;;;;14.50;8.07;;;;;;;;;;5050245;28;20643;-49
2021/07/09 08:44:11;;;;;;;12.50;7.97;;;;;;;;;;5061311;28;20535;-47
2021/07/09 08:46:37;;;;;;;16.17;8.60;;;;;;;;;;5059537;28;20071;-49
2021/07/09 08:49:07;;;;;;;17.42;9.95;;;;;;;;;;5056070;28;20068;-47
2021/07/09 08:51:34;;;;;;;16.40;9.10;;;;;;;;;;5056618;28;20119;-46
2021/07/09 08:54:00;;;;;;;13.73;8.57;;;;;;;;;;5050133;28;20144;-50
2021/07/09 08:56:27;;;;;;;19.58;8.88;;;;;;;;;;5063588;28;20063;-48
2021/07/09 08:58:53;;;;;;;18.10;9.85;;;;;;;;;;5054976;28;20155;-47
2021/07/09 09:01:19;;;;;;;14.25;8.05;;;;;;;;;;5059620;28;20443;-46
2021/07/09 09:03:46;;;;;;;17.70;9.60;;;;;;;;;;5059830;28;20474;-46
2021/07/09 09:06:16;;;;;;;17.98;11.20;;;;;;;;;;5059960;28;20052;-47
2021/07/09 09:08:42;;;;;;;17.27;10.52;;;;;;;;;;5056870;28;20088;-49
2021/07/09 09:11:08;;;;;;;14.68;9.50;;;;;;;;;;5051396;28;20147;-46
2021/07/09 09:13:36;;;;;;;14.23;8.38;;;;;;;;;;5058863;28;20219;-47
2021/07/09 09:16:06;;;;;;;17.73;10.90;;;;;;;;;;5043013;28;20784;-50
2021/07/09 09:18:34;;;;;;;18.08;10.90;;;;;;;;;;5051002;28;20045;-47
2021/07/09 09:21:03;;;;;;;17.27;10.07;;;;;;;;;;5044864;28;21005;-47
2021/07/09 09:23:30;;;;;;;18.67;11.02;;;;;;;;;;5049700;28;20059;-48
2021/07/09 09:25:57;;;;;;;22.13;12.10;;;;;;;;;;5055578;28;20748;-46
2021/07/09 09:28:23;;;;;;;27.77;13.13;;;;;;;;;;5043078;28;20376;-47
2021/07/09 09:30:53;;;;;;;19.75;12.77;;;;;;;;;;5051686;28;20163;-46
2021/07/09 09:33:20;;;;;;;21.20;12.52;;;;;;;;;;5053052;28;20084;-47
2021/07/09 09:35:51;;;;;;;23.63;13.80;;;;;;;;;;5061069;28;20132;-48
2021/07/09 09:38:18;;;;;;;29.27;16.00;;;;;;;;;;5052028;28;20152;-47
2021/07/09 09:40:46;;;;;;;27.25;16.55;;;;;;;;;;5054229;28;20087;-46
2021/07/09 09:43:12;;;;;;;;;;;;;;;;;;5049323;28;20140;-46
2021/07/09 09:45:39;;;;;;;29.15;15.85;;;;;;;;;;5061431;28;20031;-48
2021/07/09 09:48:07;;;;;;;30.58;14.98;;;;;;;;;;5059698;28;20047;-48
2021/07/09 09:50:33;;;;;;;;;;;;;;;;;;5055038;28;20127;-47
2021/07/09 09:52:59;;;;;;;24.42;15.05;;;;;;;;;;5053793;28;20003;-47
2021/07/09 09:55:30;;;;;;;23.08;15.73;;;;;;;;;;5037242;28;20084;-47
2021/07/09 09:58:10;;;;;;;27.25;16.15;;;;;;;;;;5051703;28;20131;-47
2021/07/09 10:00:37;;;;;;;24.92;16.05;;;;;;;;;;5051549;28;20159;-47
2021/07/09 10:03:19;;;;;;;26.13;16.05;;;;;;;;;;5051743;28;20461;-47
2021/07/09 10:05:47;;;;;;;27.70;16.30;;;;;;;;;;5048442;28;20507;-48
2021/07/09 10:08:14;;;;;;;26.05;15.63;;;;;;;;;;5049897;28;20947;-47
2021/07/09 10:10:41;;;;;;;25.63;16.95;;;;;;;;;;5055994;28;20149;-48
2021/07/09 10:13:08;;;;;;;27.38;17.35;;;;;;;;;;5047896;28;20137;-46
2021/07/09 10:15:34;;;;;;;25.70;15.52;;;;;;;;;;5055280;28;20048;-46
2021/07/09 10:18:01;;;;;;;25.15;15.02;;;;;;;;;;5045116;28;20140;-47
2021/07/09 10:20:28;;;;;;;19.45;14.20;;;;;;;;;;5057560;28;20106;-48
2021/07/09 10:22:57;;;;;;;26.50;15.95;;;;;;;;;;5056226;28;20135;-48
2021/07/09 10:25:24;;;;;;;25.48;15.70;;;;;;;;;;5057726;28;20120;-46
2021/07/09 10:27:51;;;;;;;23.17;15.33;;;;;;;;;;5030955;28;20084;-47
2021/07/09 10:30:17;;;;;;;29.73;17.48;;;;;;;;;;5052967;28;20780;-48
2021/07/09 10:32:49;;;;;;;25.90;15.65;;;;;;;;;;5058761;28;20155;-48
2021/07/09 10:35:32;;;;;;;20.83;14.60;;;;;;;;;;5057290;28;20135;-47
2021/07/09 10:38:11;;;;;;;18.10;13.40;;;;;;;;;;5055722;28;20126;-47
2021/07/09 10:40:38;;;;;;;18.65;12.50;;;;;;;;;;5056551;28;20132;-47
2021/07/09 10:43:06;;;;;;;18.33;12.93;;;;;;;;;;5051343;28;20123;-48
2021/07/09 10:45:32;;;;;;;20.27;14.20;;;;;;;;;;5048250;28;20045;-47
2021/07/09 10:48:05;;;;;;;21.63;16.63;;;;;;;;;;5060755;28;20052;-48
2021/07/09 10:50:47;;;;;;;22.70;16.83;;;;;;;;;;5055045;28;20083;-48
2021/07/09 10:53:13;;;;;;;28.52;16.95;;;;;;;;;;5062699;28;20159;-47
2021/07/09 10:55:46;;;;;;;27.33;18.60;;;;;;;;;;5056395;28;20080;-47
2021/07/09 10:58:19;;;;;;;22.67;16.92;;;;;;;;;;5061714;28;20056;-48
2021/07/09 11:00:46;;;;;;;23.02;16.83;;;;;;;;;;5065825;28;20099;-47
2021/07/09 11:03:22;;;;;;;22.67;15.32;;;;;;;;;;5059514;28;20088;-48
2021/07/09 11:05:54;;;;;;;25.58;17.40;;;;;;;;;;5060166;28;20126;-47
2021/07/09 11:08:32;;;;;;;27.20;18.10;;;;;;;;;;5055602;28;20114;-48
2021/07/09 11:11:03;;;;;;;26.42;17.92;;;;;;;;;;5052224;28;20052;-48
2021/07/09 11:13:44;;;;;;;28.00;17.48;;;;;;;;;;5043984;28;20044;-48
2021/07/09 11:16:24;;;;;;;26.02;17.35;;;;;;;;;;5052173;28;20135;-49
2021/07/09 11:19:07;;;;;;;23.33;15.88;;;;;;;;;;5058056;28;20165;-47
2021/07/09 11:21:38;;;;;;;22.60;16.42;;;;;;;;;;5057343;28;20131;-48
2021/07/09 11:24:11;;;;;;;25.45;16.95;;;;;;;;;;5055107;28;20052;-48
2021/07/09 11:26:46;;;;;;;22.25;14.30;;;;;;;;;;5055449;28;20587;-48
2021/07/09 11:29:27;;;;;;;24.00;13.60;;;;;;;;;;5061213;28;20076;-47
2021/07/09 11:32:05;;;;;;;20.92;13.77;;;;;;;;;;5056236;28;20114;-48
2021/07/09 11:34:33;;;;;;;22.00;13.32;;;;;;;;;;5061904;28;20052;-48
2021/07/09 11:37:02;;;;;;;19.20;11.60;;;;;;;;;;5055127;28;20142;-48
2021/07/09 11:39:28;;;;;;;;;;;;;;;;;;5059987;28;20356;-48
2021/07/09 11:41:59;;;;;;;18.17;11.50;;;;;;;;;;5058126;28;20019;-46
2021/07/09 11:44:33;;;;;;;21.13;12.77;;;;;;;;;;5055352;28;20160;-47
2021/07/09 11:47:00;;;;;;;21.85;14.30;;;;;;;;;;5039667;28;20147;-46
2021/07/09 11:49:27;;;;;;;;;;;;;;;;;;5052678;28;20096;-46
2021/07/09 11:51:55;;;;;;;21.27;12.38;;;;;;;;;;5051438;28;20038;-50
2021/07/09 11:54:22;;;;;;;20.83;12.05;;;;;;;;;;5036491;28;20217;-48
2021/07/09 11:56:53;;;;;;;17.98;10.75;;;;;;;;;;5057542;28;20071;-47
2021/07/09 11:59:20;;;;;;;18.33;11.60;;;;;;;;;;5044905;28;20054;-50
2021/07/09 12:02:03;;;;;;;20.27;12.02;;;;;;;;;;5064279;28;20129;-48
2021/07/09 12:04:36;;;;;;;19.80;11.52;;;;;;;;;;5052629;28;20106;-49
2021/07/09 12:07:15;;;;;;;15.07;9.50;;;;;;;;;;5040871;28;20147;-50
2021/07/09 12:09:45;;;;;;;15.93;10.07;;;;;;;;;;5045135;28;20136;-48
2021/07/09 12:12:12;;;;;;;14.73;9.20;;;;;;;;;;5055342;28;20155;-47
2021/07/09 12:14:50;;;;;;;11.53;8.13;;;;;;;;;;5057533;28;20144;-49
2021/07/09 12:17:17;;;;;;;11.45;7.47;;;;;;;;;;5056948;28;20108;-48
2021/07/09 12:19:57;;;;;;;10.82;7.20;;;;;;;;;;5045060;28;20556;-48
2021/07/09 12:22:25;;;;;;;12.65;8.30;;;;;;;;;;5039181;28;20598;-47
2021/07/09 12:24:52;;;;;;;10.25;7.97;;;;;;;;;;5053142;28;20564;-49
2021/07/09 12:27:19;;;;;;;12.80;7.90;;;;;;;;;;5052994;28;20106;-49
2021/07/09 12:29:46;;;;;;;14.05;9.18;;;;;;;;;;5064734;28;20163;-48
2021/07/09 12:32:12;;;;;;;13.35;8.63;;;;;;;;;;5053188;28;20132;-48
2021/07/09 12:34:39;;;;;;;12.25;8.20;;;;;;;;;;5052689;28;20075;-47
2021/07/09 12:37:05;;;;;;;12.65;8.65;;;;;;;;;;5058674;28;20140;-50
2021/07/09 12:39:32;;;;;;;14.25;9.35;;;;;;;;;;5044832;28;20151;-48
2021/07/09 12:42:11;;;;;;;17.20;10.05;;;;;;;;;;5058861;28;20045;-47
2021/07/09 12:44:51;;;;;;;18.42;11.13;;;;;;;;;;5040545;28;20140;-47
2021/07/09 12:47:17;;;;;;;15.27;9.85;;;;;;;;;;5043313;28;20332;-47
2021/07/09 12:49:43;;;;;;;14.43;9.82;;;;;;;;;;5032671;28;20079;-47
2021/07/09 12:52:10;;;;;;;15.82;9.43;;;;;;;;;;5043639;28;20140;-46
2021/07/09 12:54:43;;;;;;;14.90;8.05;;;;;;;;;;5056888;28;20060;-47
2021/07/09 12:57:09;;;;;;;16.65;8.90;;;;;;;;;;5049502;28;20113;-47
2021/07/09 12:59:36;;;;;;;18.98;10.15;;;;;;;;;;5057675;28;20056;-48
2021/07/09 13:02:03;;;;;;;17.55;10.43;;;;;;;;;;5050483;28;20430;-46
2021/07/09 13:04:34;;;;;;;14.65;10.40;;;;;;;;;;5054224;28;20072;-49
2021/07/09 13:07:16;;;;;;;14.63;9.63;;;;;;;;;;5056911;28;20535;-52
2021/07/09 13:09:44;;;;;;;16.02;10.35;;;;;;;;;;5059241;28;20497;-49
2021/07/09 13:12:12;;;;;;;17.40;10.40;;;;;;;;;;5044677;28;20045;-48
2021/07/09 13:14:58;;;;;;;18.67;10.75;;;;;;;;;;5047089;28;20132;-51
2021/07/09 13:17:25;;;;;;;18.00;11.33;;;;;;;;;;5055649;28;20041;-47
2021/07/09 13:20:12;;;;;;;16.40;11.10;;;;;;;;;;5054140;28;20136;-48
2021/07/09 13:22:46;;;;;;;19.08;11.43;;;;;;;;;;5051621;28;20744;-49
2021/07/09 13:25:15;;;;;;;15.50;11.32;;;;;;;;;;5063448;28;20152;-48
2021/07/09 13:27:43;;;;;;;16.50;10.55;;;;;;;;;;5059982;28;20045;-48
2021/07/09 13:30:09;;;;;;;14.13;10.23;;;;;;;;;;5051695;28;20163;-49
2021/07/09 13:32:38;;;;;;;17.17;11.60;;;;;;;;;;5054078;28;20132;-48
2021/07/09 13:35:06;;;;;;;19.25;11.70;;;;;;;;;;5051054;28;20045;-49
2021/07/09 13:37:32;;;;;;;19.83;12.93;;;;;;;;;;5057746;28;20143;-49
2021/07/09 13:39:59;;;;;;;18.83;12.27;;;;;;;;;;5051740;28;20793;-52
2021/07/09 13:42:25;;;;;;;18.58;12.52;;;;;;;;;;5057349;28;20131;-48
2021/07/09 13:44:51;;;;;;;21.17;13.05;;;;;;;;;;5050841;28;20135;-47
2021/07/09 13:47:18;;;;;;;20.98;14.00;;;;;;;;;;5057954;28;20501;-50
2021/07/09 13:49:48;;;;;;;22.50;14.27;;;;;;;;;;5054848;28;20049;-50
2021/07/09 13:52:14;;;;;;;20.52;14.25;;;;;;;;;;5049700;28;20890;-47
2021/07/09 13:54:40;;;;;;;22.27;15.60;;;;;;;;;;5067088;28;20171;-48
2021/07/09 13:57:07;;;;;;;26.08;15.55;;;;;;;;;;5047860;28;20554;-48
2021/07/09 13:59:36;;;;;;;22.45;14.48;;;;;;;;;;5060116;28;20049;-48
2021/07/09 14:02:02;;;;;;;25.30;15.57;;;;;;;;;;5060201;28;20155;-48
2021/07/09 14:04:32;;;;;;;25.13;17.40;;;;;;;;;;5063962;28;20086;-47
2021/07/09 14:06:58;;;;;;;21.63;14.63;;;;;;;;;;5066519;28;20053;-47
2021/07/09 14:09:25;;;;;;;21.98;15.07;;;;;;;;;;5055984;28;20679;-47
2021/07/09 14:11:51;;;;;;;21.15;15.50;;;;;;;;;;5043800;28;20079;-48
2021/07/09 14:14:18;;;;;;;24.90;16.83;;;;;;;;;;5046896;28;20048;-47
2021/07/09 14:16:48;;;;;;;23.80;14.70;;;;;;;;;;5058196;28;20107;-47
2021/07/09 14:19:14;;;;;;;25.80;16.27;;;;;;;;;;5051770;28;20083;-47
2021/07/09 14:21:41;;;;;;;24.10;16.55;;;;;;;;;;5061157;28;20155;-47
2021/07/09 14:24:07;;;;;;;25.02;15.30;;;;;;;;;;5046705;28;20120;-48
2021/07/09 14:26:36;;;;;;;26.75;15.30;;;;;;;;;;5047265;28;20210;-47